createdAt,value
2018-09-25T00:00:56.092Z,7.23
2018-09-25T00:03:29.802Z,7.19
2018-09-25T00:06:03.349Z,7.17
2018-09-25T00:08:37.064Z,7.07
2018-09-25T00:11:12.696Z,7.14
2018-09-25T00:13:46.152Z,7.07
2018-09-25T00:16:19.844Z,7.12
2018-09-25T00:18:53.513Z,7.19
2018-09-25T00:21:27.382Z,7.17
2018-09-25T00:24:00.792Z,7.07
2018-09-25T00:26:34.512Z,7.02
2018-09-25T00:29:07.933Z,6.97
2018-09-25T00:31:41.649Z,7.00
2018-09-25T00:34:15.298Z,7.11
2018-09-25T00:36:48.860Z,7.17
2018-09-25T00:39:22.633Z,7.19
2018-09-25T00:41:56.270Z,7.20
2018-09-25T00:44:29.698Z,7.19
2018-09-25T00:47:03.563Z,7.30
2018-09-25T00:49:37.076Z,7.28
2018-09-25T00:52:10.629Z,7.24
2018-09-25T00:54:44.193Z,7.21
2018-09-25T00:57:17.698Z,7.25
2018-09-25T00:59:51.272Z,7.15
2018-09-25T01:02:24.872Z,7.23
2018-09-25T01:04:58.329Z,7.26
2018-09-25T01:07:31.944Z,7.30
2018-09-25T01:10:11.916Z,7.26
2018-09-25T01:12:45.668Z,7.25
2018-09-25T01:15:19.096Z,7.26
2018-09-25T01:17:52.556Z,7.25
2018-09-25T01:20:26.240Z,7.21
2018-09-25T01:23:00.013Z,7.26
2018-09-25T01:25:33.450Z,7.36
2018-09-25T01:28:07.036Z,7.33
2018-09-25T01:30:40.662Z,7.23
2018-09-25T01:33:14.172Z,7.19
2018-09-25T01:35:47.893Z,7.21
2018-09-25T01:38:21.634Z,7.18
2018-09-25T01:40:55.301Z,7.15
2018-09-25T01:43:28.927Z,7.19
2018-09-25T01:46:02.667Z,7.19
2018-09-25T01:48:36.540Z,7.13
2018-09-25T01:51:10.025Z,7.20
2018-09-25T01:53:43.742Z,7.12
2018-09-25T01:56:17.433Z,7.25
2018-09-25T01:58:51.258Z,7.21
2018-09-25T02:01:24.749Z,7.21
2018-09-25T02:03:58.433Z,7.31
2018-09-25T02:06:37.804Z,7.20
2018-09-25T02:09:12.015Z,7.12
2018-09-25T02:11:45.746Z,7.04
2018-09-25T02:14:19.347Z,6.87
2018-09-25T02:16:52.808Z,6.86
2018-09-25T02:19:26.576Z,6.79
2018-09-25T02:22:00.088Z,6.77
2018-09-25T02:24:33.565Z,6.68
2018-09-25T02:27:07.021Z,6.57
2018-09-25T02:29:40.769Z,6.39
2018-09-25T02:32:14.237Z,6.51
2018-09-25T02:34:47.733Z,6.43
2018-09-25T02:37:21.195Z,6.42
2018-09-25T02:39:54.992Z,6.55
2018-09-25T02:42:28.505Z,6.49
2018-09-25T02:45:01.994Z,6.45
2018-09-25T02:47:35.668Z,6.50
2018-09-25T02:50:10.432Z,6.52
2018-09-25T02:52:43.872Z,6.59
2018-09-25T02:55:17.633Z,6.50
2018-09-25T02:57:51.065Z,6.54
2018-09-25T03:00:24.800Z,6.48
2018-09-25T03:02:58.489Z,6.41
2018-09-25T03:05:31.976Z,6.41
2018-09-25T03:08:05.402Z,6.35
2018-09-25T03:10:38.825Z,6.37
2018-09-25T03:13:12.521Z,6.47
2018-09-25T03:15:46.236Z,6.56
2018-09-25T03:18:19.999Z,6.64
2018-09-25T03:20:53.748Z,6.60
2018-09-25T03:23:28.442Z,6.62
2018-09-25T03:26:01.905Z,6.44
2018-09-25T03:28:35.648Z,6.56
2018-09-25T03:31:09.398Z,6.54
2018-09-25T03:33:43.040Z,6.57
2018-09-25T03:36:16.935Z,6.58
2018-09-25T03:38:50.545Z,6.59
2018-09-25T03:41:24.074Z,6.54
2018-09-25T03:43:57.533Z,6.51
2018-09-25T03:46:31.356Z,6.55
2018-09-25T03:49:04.812Z,6.59
2018-09-25T03:51:39.016Z,6.61
2018-09-25T03:54:12.556Z,6.60
2018-09-25T03:56:46.050Z,6.62
2018-09-25T03:59:19.812Z,6.58
2018-09-25T04:01:53.324Z,6.60
2018-09-25T04:04:27.044Z,6.59
2018-09-25T04:07:00.693Z,6.92
2018-09-25T04:09:34.436Z,6.77
2018-09-25T04:12:08.176Z,6.70
2018-09-25T04:14:41.572Z,6.73
2018-09-25T04:17:15.232Z,6.82
2018-09-25T04:19:48.700Z,6.90
2018-09-25T04:22:22.184Z,6.89
2018-09-25T04:24:55.608Z,7.02
2018-09-25T04:27:29.372Z,6.91
2018-09-25T04:30:02.805Z,6.89
2018-09-25T04:32:36.305Z,6.91
2018-09-25T04:35:10.082Z,6.91
2018-09-25T04:37:43.675Z,6.88
2018-09-25T04:40:17.400Z,6.91
2018-09-25T04:42:51.176Z,6.96
2018-09-25T04:45:24.910Z,6.79
2018-09-25T04:47:58.418Z,6.77
2018-09-25T04:50:32.140Z,6.79
2018-09-25T04:53:05.828Z,6.84
2018-09-25T04:55:39.547Z,6.78
2018-09-25T04:58:13.067Z,6.86
2018-09-25T05:00:46.703Z,6.80
2018-09-25T05:03:20.351Z,6.80
2018-09-25T05:05:54.043Z,6.83
2018-09-25T05:08:27.627Z,6.86
2018-09-25T05:11:01.027Z,7.01
2018-09-25T05:13:34.716Z,6.92
2018-09-25T05:16:09.139Z,6.96
2018-09-25T05:18:42.942Z,6.93
2018-09-25T05:21:16.380Z,7.06
2018-09-25T05:23:49.986Z,7.05
2018-09-25T05:26:23.743Z,7.09
2018-09-25T05:28:57.469Z,7.18
2018-09-25T05:31:31.148Z,7.33
2018-09-25T05:34:04.891Z,7.70
2018-09-25T05:36:38.584Z,7.50
2018-09-25T05:39:13.960Z,7.44
2018-09-25T05:41:48.425Z,7.39
2018-09-25T05:44:21.925Z,7.36
2018-09-25T05:46:55.432Z,7.35
2018-09-25T05:49:29.149Z,7.40
2018-09-25T05:52:02.689Z,7.38
2018-09-25T05:54:37.065Z,7.44
2018-09-25T05:57:10.580Z,7.52
2018-09-25T05:59:44.037Z,7.42
2018-09-25T06:02:17.425Z,7.43
2018-09-25T06:04:51.204Z,7.43
2018-09-25T06:07:25.012Z,7.61
2018-09-25T06:09:58.878Z,7.80
2018-09-25T06:12:32.499Z,7.86
2018-09-25T06:15:06.204Z,7.97
2018-09-25T06:17:40.884Z,8.08
2018-09-25T06:20:14.261Z,8.15
2018-09-25T06:22:47.995Z,8.21
2018-09-25T06:25:21.669Z,8.27
2018-09-25T06:27:55.133Z,8.23
2018-09-25T06:30:28.791Z,8.19
2018-09-25T06:33:02.545Z,8.23
2018-09-25T06:35:36.008Z,8.26
2018-09-25T06:38:09.477Z,8.43
2018-09-25T06:40:44.113Z,8.62
2018-09-25T06:43:17.812Z,8.86
2018-09-25T06:45:51.285Z,8.67
2018-09-25T06:48:24.853Z,8.78
2018-09-25T06:50:58.502Z,8.96
2018-09-25T06:53:31.958Z,9.13
2018-09-25T06:56:05.460Z,9.12
2018-09-25T06:58:39.216Z,9.44
2018-09-25T07:01:12.957Z,9.50
2018-09-25T07:03:46.435Z,9.40
2018-09-25T07:06:20.001Z,9.68
2018-09-25T07:08:53.668Z,9.84
2018-09-25T07:11:27.344Z,9.93
2018-09-25T07:14:01.033Z,10.11
2018-09-25T07:16:34.502Z,10.24
2018-09-25T07:19:08.341Z,10.40
2018-09-25T07:21:42.065Z,10.50
2018-09-25T07:24:15.781Z,10.66
2018-09-25T07:26:49.432Z,10.72
2018-09-25T07:29:23.209Z,10.95
2018-09-25T07:31:56.928Z,11.48
2018-09-25T07:34:30.487Z,11.67
2018-09-25T07:37:04.124Z,11.15
2018-09-25T07:39:37.882Z,11.01
2018-09-25T07:42:11.653Z,10.82
2018-09-25T07:44:45.128Z,10.91
2018-09-25T07:47:18.722Z,10.85
2018-09-25T07:49:52.176Z,11.00
2018-09-25T07:52:25.752Z,11.08
2018-09-25T07:54:59.360Z,10.99
2018-09-25T07:57:32.842Z,11.35
2018-09-25T08:00:06.371Z,11.59
2018-09-25T08:02:39.920Z,11.20
2018-09-25T08:05:13.661Z,11.45
2018-09-25T08:07:47.360Z,11.58
2018-09-25T08:10:21.051Z,12.00
2018-09-25T08:12:54.496Z,11.94
2018-09-25T08:15:28.060Z,11.83
2018-09-25T08:18:01.453Z,11.89
2018-09-25T08:20:35.172Z,12.19
2018-09-25T08:23:08.588Z,12.47
2018-09-25T08:25:42.349Z,12.30
2018-09-25T08:28:16.277Z,12.45
2018-09-25T08:30:49.752Z,12.73
2018-09-25T08:33:23.560Z,13.14
2018-09-25T08:35:57.301Z,12.66
2018-09-25T08:38:31.086Z,12.72
2018-09-25T08:41:04.820Z,12.93
2018-09-25T08:43:38.565Z,12.58
2018-09-25T08:46:12.654Z,12.76
2018-09-25T08:48:46.080Z,12.62
2018-09-25T08:51:19.713Z,13.20
2018-09-25T08:53:53.249Z,13.86
2018-09-25T08:56:26.752Z,13.88
2018-09-25T08:59:00.492Z,13.95
2018-09-25T09:01:33.984Z,13.69
2018-09-25T09:04:07.561Z,13.84
2018-09-25T09:06:41.027Z,13.32
2018-09-25T09:09:15.212Z,13.50
2018-09-25T09:11:49.604Z,13.91
2018-09-25T09:14:23.156Z,14.10
2018-09-25T09:16:56.845Z,14.61
2018-09-25T09:19:30.310Z,14.33
2018-09-25T09:22:03.857Z,13.64
2018-09-25T09:24:37.540Z,14.03
2018-09-25T09:27:11.263Z,14.31
2018-09-25T09:29:44.744Z,13.90
2018-09-25T09:32:18.452Z,13.41
2018-09-25T09:34:51.934Z,13.41
2018-09-25T09:37:25.637Z,13.41
2018-09-25T09:39:59.343Z,14.05
2018-09-25T09:42:32.802Z,14.54
2018-09-25T09:45:06.305Z,13.67
2018-09-25T09:47:39.981Z,13.47
2018-09-25T09:50:13.619Z,13.89
2018-09-25T09:52:47.349Z,14.12
2018-09-25T09:55:20.832Z,14.11
2018-09-25T09:57:54.460Z,13.92
2018-09-25T10:00:27.937Z,13.96
2018-09-25T10:03:01.398Z,13.81
2018-09-25T10:05:34.860Z,14.13
2018-09-25T10:08:08.613Z,14.30
2018-09-25T10:10:42.352Z,14.59
2018-09-25T10:13:16.072Z,14.51
2018-09-25T10:15:49.544Z,14.23
2018-09-25T10:18:23.005Z,13.93
2018-09-25T10:20:56.737Z,14.23
2018-09-25T10:23:30.517Z,14.90
2018-09-25T10:26:04.255Z,14.87
2018-09-25T10:28:37.983Z,14.49
2018-09-25T10:31:11.736Z,14.51
2018-09-25T10:33:45.267Z,14.59
2018-09-25T10:36:18.941Z,14.76
2018-09-25T10:38:52.642Z,14.36
2018-09-25T10:41:26.309Z,14.21
2018-09-25T10:44:00.003Z,13.92
2018-09-25T10:46:40.541Z,13.83
2018-09-25T10:49:14.016Z,13.99
2018-09-25T10:51:47.754Z,13.91
2018-09-25T10:54:21.253Z,14.08
2018-09-25T10:56:54.961Z,14.75
2018-09-25T10:59:28.614Z,15.13
2018-09-25T11:02:02.192Z,15.24
2018-09-25T11:04:35.904Z,15.70
2018-09-25T11:07:09.617Z,15.68
2018-09-25T11:09:43.089Z,15.68
2018-09-25T11:12:16.600Z,15.11
2018-09-25T11:14:50.325Z,14.75
2018-09-25T11:17:24.075Z,14.65
2018-09-25T11:19:57.813Z,15.12
2018-09-25T11:22:31.269Z,14.77
2018-09-25T11:25:05.046Z,14.52
2018-09-25T11:27:38.550Z,14.69
2018-09-25T11:30:12.683Z,14.92
2018-09-25T11:32:46.142Z,15.44
2018-09-25T11:35:19.836Z,15.03
2018-09-25T11:37:53.520Z,14.67
2018-09-25T11:40:27.265Z,14.86
2018-09-25T11:43:00.733Z,15.03
2018-09-25T11:45:34.189Z,15.38
2018-09-25T11:48:07.725Z,15.60
2018-09-25T11:50:41.376Z,15.69
2018-09-25T11:53:15.070Z,15.57
2018-09-25T11:55:48.801Z,15.33
2018-09-25T11:58:22.521Z,14.92
2018-09-25T12:00:56.205Z,14.99
2018-09-25T12:03:29.768Z,15.07
2018-09-25T12:06:03.240Z,15.44
2018-09-25T12:08:37.333Z,15.69
2018-09-25T12:11:10.969Z,15.77
2018-09-25T12:13:44.849Z,15.10
2018-09-25T12:16:18.569Z,15.17
2018-09-25T12:18:52.221Z,15.27
2018-09-25T12:21:25.927Z,15.59
2018-09-25T12:23:59.661Z,15.33
2018-09-25T12:26:33.412Z,14.84
2018-09-25T12:29:07.125Z,15.11
2018-09-25T12:31:40.673Z,14.74
2018-09-25T12:34:14.354Z,14.83
2018-09-25T12:36:47.889Z,14.75
2018-09-25T12:39:21.612Z,14.88
2018-09-25T12:41:55.326Z,14.85
2018-09-25T12:44:29.124Z,14.61
2018-09-25T12:47:09.153Z,14.71
2018-09-25T12:49:42.708Z,14.72
2018-09-25T12:52:16.246Z,15.01
2018-09-25T12:54:49.941Z,15.02
2018-09-25T12:57:23.661Z,15.08
2018-09-25T12:59:57.344Z,15.20
2018-09-25T13:02:30.775Z,15.37
2018-09-25T13:05:04.433Z,15.30
2018-09-25T13:07:37.900Z,15.29
2018-09-25T13:10:11.625Z,15.50
2018-09-25T13:12:46.309Z,15.33
2018-09-25T13:15:20.000Z,15.30
2018-09-25T13:17:54.436Z,15.15
2018-09-25T13:20:27.888Z,14.99
2018-09-25T13:23:01.677Z,15.41
2018-09-25T13:25:35.480Z,15.34
2018-09-25T13:28:08.953Z,15.75
2018-09-25T13:30:42.461Z,16.20
2018-09-25T13:33:16.268Z,16.66
2018-09-25T13:35:49.970Z,16.87
2018-09-25T13:38:23.759Z,16.25
2018-09-25T13:40:57.488Z,16.14
2018-09-25T13:43:31.165Z,16.08
2018-09-25T13:46:04.709Z,16.00
2018-09-25T13:48:38.477Z,16.01
2018-09-25T13:51:12.033Z,16.16
2018-09-25T13:53:45.764Z,16.39
2018-09-25T13:56:19.445Z,16.32
2018-09-25T13:58:53.149Z,15.66
2018-09-25T14:01:26.596Z,15.67
2018-09-25T14:04:00.337Z,15.60
2018-09-25T14:06:33.852Z,15.35
2018-09-25T14:09:07.578Z,15.89
2018-09-25T14:11:44.553Z,15.81
2018-09-25T14:14:18.146Z,15.73
2018-09-25T14:16:51.928Z,15.25
2018-09-25T14:19:25.416Z,15.31
2018-09-25T14:21:58.985Z,15.02
2018-09-25T14:24:32.412Z,15.14
2018-09-25T14:27:05.886Z,15.32
2018-09-25T14:29:39.416Z,15.58
2018-09-25T14:32:13.273Z,15.73
2018-09-25T14:34:46.734Z,15.60
2018-09-25T14:37:20.481Z,15.08
2018-09-25T14:39:54.161Z,15.43
2018-09-25T14:42:27.849Z,15.35
2018-09-25T14:45:01.486Z,15.04
2018-09-25T14:47:35.107Z,15.00
2018-09-25T14:50:08.812Z,14.93
2018-09-25T14:52:42.512Z,14.84
2018-09-25T14:55:16.973Z,14.69
2018-09-25T14:57:50.423Z,14.79
2018-09-25T15:00:23.897Z,14.87
2018-09-25T15:02:57.589Z,15.28
2018-09-25T15:05:31.264Z,15.79
2018-09-25T15:08:04.975Z,16.84
2018-09-25T15:10:38.431Z,16.21
2018-09-25T15:13:12.053Z,15.76
2018-09-25T15:15:45.745Z,16.00
2018-09-25T15:18:19.344Z,15.68
2018-09-25T15:20:52.825Z,14.96
2018-09-25T15:23:26.278Z,15.17
2018-09-25T15:25:59.751Z,15.38
2018-09-25T15:28:33.524Z,15.78
2018-09-25T15:31:07.317Z,18.48
2018-09-25T15:33:41.124Z,20.10
2018-09-25T15:36:14.604Z,22.56
2018-09-25T15:41:38.331Z,22.34
2018-09-25T15:44:12.519Z,20.96
2018-09-25T15:46:46.015Z,19.91
2018-09-25T15:49:19.536Z,18.24
2018-09-25T15:51:53.008Z,16.99
2018-09-25T15:54:26.773Z,16.53
2018-09-25T15:57:00.541Z,16.02
2018-09-25T15:59:34.125Z,15.71
2018-09-25T16:02:07.889Z,15.43
2018-09-25T16:04:41.609Z,15.17
2018-09-25T16:07:15.356Z,14.84
2018-09-25T16:09:48.845Z,14.57
2018-09-25T16:12:22.565Z,14.82
2018-09-25T16:14:56.281Z,14.88
2018-09-25T16:17:30.172Z,14.74
2018-09-25T16:20:03.641Z,14.68
2018-09-25T16:22:37.276Z,14.54
2018-09-25T16:25:11.363Z,14.36
2018-09-25T16:27:45.111Z,14.45
2018-09-25T16:30:18.828Z,14.35
2018-09-25T16:32:52.565Z,14.39
2018-09-25T16:35:26.224Z,14.34
2018-09-25T16:38:00.131Z,14.32
2018-09-25T16:40:33.585Z,14.34
2018-09-25T16:43:07.207Z,14.42
2018-09-25T16:45:40.894Z,14.39
2018-09-25T16:48:14.521Z,14.13
2018-09-25T16:50:48.012Z,14.16
2018-09-25T16:53:21.481Z,14.16
2018-09-25T16:55:54.937Z,14.09
2018-09-25T16:58:28.661Z,14.11
2018-09-25T17:01:02.353Z,14.22
2018-09-25T17:03:36.103Z,14.32
2018-09-25T17:06:09.537Z,14.19
2018-09-25T17:08:43.029Z,13.92
2018-09-25T17:11:16.468Z,13.74
2018-09-25T17:13:49.976Z,13.75
2018-09-25T17:16:23.525Z,13.72
2018-09-25T17:18:57.108Z,13.56
2018-09-25T17:21:30.521Z,13.51
2018-09-25T17:24:04.401Z,13.49
2018-09-25T17:26:38.705Z,13.34
2018-09-25T17:29:13.082Z,13.35
2018-09-25T17:31:46.772Z,13.37
2018-09-25T17:34:20.212Z,13.25
2018-09-25T17:36:53.661Z,13.18
2018-09-25T17:39:27.385Z,13.18
2018-09-25T17:42:00.840Z,13.09
2018-09-25T17:44:34.495Z,12.97
2018-09-25T17:47:07.977Z,12.97
2018-09-25T17:49:41.849Z,12.73
2018-09-25T17:52:15.514Z,12.79
2018-09-25T17:54:49.143Z,12.66
2018-09-25T17:57:22.844Z,12.67
2018-09-25T17:59:56.661Z,12.78
2018-09-25T18:02:30.433Z,12.63
2018-09-25T18:05:04.272Z,12.54
2018-09-25T18:07:37.949Z,12.44
2018-09-25T18:10:11.981Z,12.40
2018-09-25T18:12:45.552Z,12.36
2018-09-25T18:15:19.057Z,12.22
2018-09-25T18:17:52.857Z,12.07
2018-09-25T18:20:26.325Z,12.06
2018-09-25T18:22:59.801Z,11.97
2018-09-25T18:25:33.329Z,12.00
2018-09-25T18:28:06.827Z,11.87
2018-09-25T18:30:40.577Z,11.85
2018-09-25T18:33:14.225Z,11.74
2018-09-25T18:35:47.785Z,11.68
2018-09-25T18:38:21.437Z,11.67
2018-09-25T18:40:55.552Z,11.69
2018-09-25T18:43:29.311Z,11.80
2018-09-25T18:46:03.025Z,11.69
2018-09-25T18:48:36.957Z,11.68
2018-09-25T18:51:10.644Z,11.51
2018-09-25T18:53:44.261Z,11.50
2018-09-25T18:56:18.036Z,11.54
2018-09-25T18:58:51.576Z,11.51
2018-09-25T19:01:25.358Z,11.58
2018-09-25T19:03:58.756Z,11.51
2018-09-25T19:06:32.484Z,11.49
2018-09-25T19:09:05.860Z,11.53
2018-09-25T19:11:39.848Z,11.47
2018-09-25T19:14:14.276Z,11.54
2018-09-25T19:16:47.725Z,11.56
2018-09-25T19:19:21.223Z,11.51
2018-09-25T19:21:54.768Z,11.45
2018-09-25T19:24:28.443Z,11.39
2018-09-25T19:27:02.179Z,11.30
2018-09-25T19:29:35.596Z,11.37
2018-09-25T19:32:09.293Z,11.36
2018-09-25T19:34:43.044Z,11.33
2018-09-25T19:37:16.693Z,11.29
2018-09-25T19:39:50.257Z,11.25
2018-09-25T19:42:23.980Z,11.30
2018-09-25T19:44:57.749Z,11.26
2018-09-25T19:47:31.189Z,11.24
2018-09-25T19:50:04.962Z,11.25
2018-09-25T19:52:38.672Z,11.13
2018-09-25T19:55:12.345Z,11.09
2018-09-25T19:57:46.089Z,11.03
2018-09-25T20:00:19.791Z,11.07
2018-09-25T20:02:53.601Z,11.13
2018-09-25T20:05:27.388Z,11.06
2018-09-25T20:08:00.864Z,11.05
2018-09-25T20:10:34.597Z,11.00
2018-09-25T20:13:08.458Z,10.89
2018-09-25T20:15:41.936Z,10.86
2018-09-25T20:18:15.564Z,10.80
2018-09-25T20:20:49.074Z,10.84
2018-09-25T20:23:22.909Z,10.86
2018-09-25T20:25:56.723Z,10.77
2018-09-25T20:28:30.333Z,10.78
2018-09-25T20:31:03.864Z,10.76
2018-09-25T20:33:37.314Z,10.62
2018-09-25T20:36:10.904Z,10.78
2018-09-25T20:38:44.700Z,10.84
2018-09-25T20:41:18.135Z,10.93
2018-09-25T20:43:51.885Z,10.90
2018-09-25T20:46:25.480Z,10.61
2018-09-25T20:48:59.366Z,10.66
2018-09-25T20:51:33.115Z,10.69
2018-09-25T20:54:06.605Z,10.68
2018-09-25T20:56:40.316Z,10.76
2018-09-25T20:59:13.988Z,10.75
2018-09-25T21:01:47.752Z,10.59
2018-09-25T21:04:21.456Z,10.56
2018-09-25T21:06:55.066Z,10.62
2018-09-25T21:09:28.818Z,10.67
2018-09-25T21:12:02.336Z,10.50
2018-09-25T21:14:35.812Z,10.51
2018-09-25T21:17:09.592Z,10.56
2018-09-25T21:19:43.384Z,10.55
2018-09-25T21:22:16.896Z,10.40
2018-09-25T21:24:50.648Z,10.31
2018-09-25T21:27:24.080Z,10.36
2018-09-25T21:29:57.855Z,10.50
2018-09-25T21:32:31.597Z,10.46
2018-09-25T21:35:05.117Z,10.46
2018-09-25T21:37:38.860Z,10.41
2018-09-25T21:40:12.507Z,10.35
2018-09-25T21:42:45.913Z,10.38
2018-09-25T21:45:19.784Z,10.50
2018-09-25T21:47:53.228Z,10.48
2018-09-25T21:50:27.083Z,10.48
2018-09-25T21:53:00.749Z,10.41
2018-09-25T21:55:34.256Z,10.51
2018-09-25T21:58:08.027Z,10.49
2018-09-25T22:00:41.796Z,10.45
2018-09-25T22:03:15.209Z,10.53
2018-09-25T22:05:48.654Z,10.58
2018-09-25T22:08:22.149Z,10.63
2018-09-25T22:10:55.776Z,10.67
2018-09-25T22:13:29.352Z,10.81
2018-09-25T22:16:03.325Z,10.75
2018-09-25T22:18:37.117Z,10.73
2018-09-25T22:21:11.110Z,10.60
2018-09-25T22:23:44.821Z,10.71
2018-09-25T22:26:18.510Z,10.76
2018-09-25T22:28:52.208Z,10.75
2018-09-25T22:31:25.885Z,10.74
2018-09-25T22:33:59.601Z,10.70
2018-09-25T22:36:33.268Z,10.84
2018-09-25T22:39:06.833Z,10.79
2018-09-25T22:41:40.248Z,10.87
2018-09-25T22:44:13.825Z,10.95
2018-09-25T22:46:47.516Z,10.91
2018-09-25T22:49:21.088Z,10.90
2018-09-25T22:51:54.776Z,10.96
2018-09-25T22:54:28.216Z,10.84
2018-09-25T22:57:01.716Z,10.89
2018-09-25T22:59:35.556Z,10.75
2018-09-25T23:02:09.324Z,10.81
2018-09-25T23:04:42.823Z,10.99
2018-09-25T23:07:16.307Z,11.08
2018-09-25T23:09:50.052Z,11.01
2018-09-25T23:12:23.716Z,11.04
2018-09-25T23:14:57.212Z,10.99
2018-09-25T23:17:30.698Z,10.92
2018-09-25T23:20:04.421Z,10.88
2018-09-25T23:22:38.020Z,10.94
2018-09-25T23:25:11.787Z,10.83
2018-09-25T23:27:45.242Z,10.82
2018-09-25T23:30:19.026Z,10.85
2018-09-25T23:32:52.736Z,10.98
2018-09-25T23:35:26.303Z,10.77
2018-09-25T23:37:59.968Z,10.75
2018-09-25T23:40:37.295Z,10.73
2018-09-25T23:43:14.624Z,10.75
2018-09-25T23:45:51.000Z,10.81
2018-09-25T23:48:25.572Z,10.75
2018-09-25T23:50:59.336Z,10.80
2018-09-25T23:53:32.652Z,10.74
2018-09-25T23:56:08.601Z,10.76
2018-09-25T23:58:41.307Z,10.77
